Time;durP1;ratioP1;P1;durP2;ratioP2;P2;SDS_P1;SDS_P2;PMS_P1;PMS_P2;Temp;Humidity;BMP_temperature;BMP_pressure;BME280_temperature;BME280_humidity;BME280_pressure;Samples;Min_cycle;Max_cycle;Signal;HPM_P1;HPM_P2
2022/06/11 00:00:53;;;;;;;2.58;0.88;;;16.70;99.90;;;;;;5069045;28;20045;-81
2022/06/11 00:03:20;;;;;;;3.88;1.00;;;16.70;99.90;;;;;;5073301;28;20638;-79
2022/06/11 00:05:47;;;;;;;2.72;1.08;;;16.60;99.90;;;;;;5073684;28;20414;-79
2022/06/11 00:08:14;;;;;;;3.28;1.02;;;16.60;99.90;;;;;;5073129;28;20053;-81
2022/06/11 00:10:42;;;;;;;2.35;1.02;;;16.60;99.90;;;;;;5075181;28;20084;-82
2022/06/11 00:13:09;;;;;;;4.82;1.08;;;16.50;99.90;;;;;;5073292;28;20076;-80
2022/06/11 00:15:37;;;;;;;2.70;1.10;;;16.50;99.90;;;;;;5058578;28;20051;-80
2022/06/11 00:18:05;;;;;;;4.60;1.13;;;16.50;99.90;;;;;;5072341;28;20055;-80
2022/06/11 00:20:33;;;;;;;3.28;1.30;;;16.60;99.90;;;;;;5064400;28;20072;-81
2022/06/11 00:22:59;;;;;;;2.70;1.27;;;16.50;99.90;;;;;;5073073;28;20135;-82
2022/06/11 00:25:27;;;;;;;1.10;1.00;;;16.50;99.90;;;;;;5075289;28;20099;-80
2022/06/11 00:27:54;;;;;;;1.77;1.10;;;16.50;99.90;;;;;;5073866;28;20064;-81
2022/06/11 00:30:20;;;;;;;2.38;1.00;;;16.40;99.90;;;;;;5073460;28;20044;-80
2022/06/11 00:32:48;;;;;;;3.33;0.93;;;16.40;99.90;;;;;;5074520;28;20059;-81
2022/06/11 00:35:16;;;;;;;2.85;1.20;;;16.40;99.90;;;;;;5072707;28;20056;-81
2022/06/11 00:37:43;;;;;;;1.67;1.02;;;16.30;99.90;;;;;;5075065;28;20055;-80
2022/06/11 00:40:14;;;;;;;1.13;1.00;;;16.30;99.90;;;;;;5071793;28;20437;-81
2022/06/11 00:42:40;;;;;;;1.25;0.90;;;16.30;99.90;;;;;;5075496;28;20075;-81
2022/06/11 00:45:15;;;;;;;1.85;1.15;;;16.30;99.90;;;;;;5073298;28;20045;-81
2022/06/11 00:47:44;;;;;;;2.25;0.90;;;16.20;99.90;;;;;;5072149;28;20054;-81
2022/06/11 00:50:27;;;;;;;3.15;1.33;;;16.20;99.90;;;;;;5071683;28;20105;-81
2022/06/11 00:52:56;;;;;;;1.83;1.05;;;16.20;99.90;;;;;;5072368;28;20407;-80
2022/06/11 00:55:31;;;;;;;1.40;0.90;;;16.20;99.90;;;;;;5073728;28;20044;-81
2022/06/11 00:58:09;;;;;;;2.90;1.00;;;16.10;99.90;;;;;;5067813;28;20105;-80
2022/06/11 01:00:41;;;;;;;3.50;1.17;;;16.10;99.90;;;;;;5073249;28;20055;-80
2022/06/11 01:03:09;;;;;;;5.38;0.95;;;16.10;99.90;;;;;;5074997;28;20111;-79
2022/06/11 01:05:41;;;;;;;1.90;0.90;;;16.00;99.90;;;;;;5054419;28;20139;-81
2022/06/11 01:08:08;;;;;;;2.72;1.20;;;16.00;99.90;;;;;;5068763;28;20109;-78
2022/06/11 01:11:05;;;;;;;3.22;1.20;;;16.00;99.90;;;;;;5071325;28;20132;-81
2022/06/11 01:13:34;;;;;;;3.20;1.23;;;15.90;99.90;;;;;;5070979;28;20049;-80
2022/06/11 01:16:11;;;;;;;1.70;1.15;;;15.90;99.90;;;;;;5075868;28;20052;-79
2022/06/11 01:18:44;;;;;;;2.90;1.60;;;15.90;99.90;;;;;;5070883;28;20075;-82
2022/06/11 01:21:30;;;;;;;1.90;1.33;;;15.80;99.90;;;;;;5078002;28;20490;-78
2022/06/11 01:24:19;;;;;;;2.30;1.00;;;15.80;99.90;;;;;;5076041;28;20057;-82
2022/06/11 01:27:05;;;;;;;1.20;1.00;;;15.80;99.90;;;;;;5092910;28;20089;-82
2022/06/11 01:29:40;;;;;;;3.50;1.30;;;15.80;99.90;;;;;;5091692;28;20041;-83
2022/06/11 01:32:45;;;;;;;3.55;1.30;;;15.80;99.90;;;;;;5085826;28;20036;-82
2022/06/11 01:35:27;;;;;;;3.05;1.25;;;15.80;99.90;;;;;;5089237;28;20036;-82
2022/06/11 01:38:03;;;;;;;3.33;1.23;;;15.70;99.90;;;;;;5085913;28;20041;-82
2022/06/11 01:40:53;;;;;;;7.28;1.75;;;15.70;99.90;;;;;;5090253;28;20064;-83
2022/06/11 01:43:39;;;;;;;3.72;1.25;;;15.70;99.90;;;;;;5087454;28;20127;-78
2022/06/11 01:46:31;;;;;;;5.03;1.83;;;15.60;99.90;;;;;;5077563;28;20052;-78
2022/06/11 01:49:03;;;;;;;3.22;1.45;;;15.70;99.90;;;;;;5069489;28;20045;-80
2022/06/11 01:51:48;;;;;;;2.10;1.33;;;15.70;99.90;;;;;;5074342;28;20045;-80
2022/06/11 01:54:48;;;;;;;3.08;1.05;;;15.70;99.90;;;;;;5072370;28;20044;-79
2022/06/11 01:57:18;;;;;;;;;;;15.70;99.90;;;;;;5072661;28;20049;-79
2022/06/11 02:00:09;;;;;;;2.35;1.33;;;15.60;99.90;;;;;;5073353;28;19920;-80
2022/06/11 02:02:42;;;;;;;2.92;1.33;;;15.50;99.90;;;;;;5064183;28;20056;-81
2022/06/11 02:05:19;;;;;;;2.50;1.42;;;15.50;99.90;;;;;;5072674;28;20131;-79
2022/06/11 02:08:26;;;;;;;2.80;1.20;;;15.50;99.90;;;;;;5071422;28;20045;-78
2022/06/11 02:11:22;;;;;;;3.17;1.20;;;15.50;99.90;;;;;;5074897;28;20486;-80
2022/06/11 02:14:23;;;;;;;4.72;1.30;;;15.60;99.90;;;;;;5076042;28;20040;-81
2022/06/11 02:17:03;;;;;;;7.57;1.40;;;15.60;99.90;;;;;;5070874;28;20072;-81
2022/06/11 02:19:36;;;;;;;2.25;1.48;;;15.60;99.90;;;;;;5056685;28;20041;-80
2022/06/11 02:22:11;;;;;;;4.13;1.67;;;15.60;99.90;;;;;;5068682;28;20056;-81
2022/06/11 02:24:44;;;;;;;2.70;1.50;;;15.50;99.90;;;;;;5076814;28;20127;-81
2022/06/11 02:27:15;;;;;;;2.40;1.10;;;15.50;99.90;;;;;;5059098;28;20048;-80
2022/06/11 02:29:44;;;;;;;3.63;1.52;;;15.40;99.90;;;;;;5069246;28;20498;-80
2022/06/11 02:32:16;;;;;;;2.33;1.80;;;15.40;99.90;;;;;;5077786;28;20056;-80
2022/06/11 02:35:05;;;;;;;4.85;1.30;;;15.40;99.90;;;;;;5075469;28;20140;-80
2022/06/11 02:37:42;;;;;;;5.07;1.67;;;15.40;99.90;;;;;;5070515;28;20108;-81
2022/06/11 02:40:16;;;;;;;1.42;1.20;;;15.40;99.90;;;;;;5073179;28;20104;-79
2022/06/11 02:42:44;;;;;;;2.72;1.30;;;15.40;99.90;;;;;;5077102;28;20080;-80
2022/06/11 02:45:12;;;;;;;4.93;1.40;;;15.30;99.90;;;;;;5074028;28;20045;-81
2022/06/11 02:47:41;;;;;;;2.78;1.38;;;15.30;99.90;;;;;;5075195;28;20048;-78
2022/06/11 02:50:08;;;;;;;1.90;1.20;;;15.30;99.90;;;;;;5071541;28;20049;-80
2022/06/11 02:52:38;;;;;;;4.70;1.30;;;15.30;99.90;;;;;;5073861;28;20135;-79
2022/06/11 02:55:05;;;;;;;3.78;1.48;;;15.30;99.90;;;;;;5070522;28;20045;-79
2022/06/11 02:57:32;;;;;;;3.30;1.50;;;15.30;99.90;;;;;;5073410;28;20139;-81
2022/06/11 02:59:59;;;;;;;3.55;1.63;;;15.40;99.90;;;;;;5065460;28;20049;-78
2022/06/11 03:02:26;;;;;;;2.13;1.30;;;15.30;99.90;;;;;;5073616;28;20044;-80
2022/06/11 03:04:53;;;;;;;3.10;1.35;;;15.30;99.90;;;;;;5072826;28;20049;-81
2022/06/11 03:07:20;;;;;;;2.22;1.20;;;15.30;99.90;;;;;;5074934;28;20040;-79
2022/06/11 03:09:47;;;;;;;2.30;1.23;;;15.30;99.90;;;;;;5071306;28;20045;-81
2022/06/11 03:12:15;;;;;;;2.50;1.65;;;15.20;99.90;;;;;;5074635;28;20075;-80
2022/06/11 03:14:43;;;;;;;2.45;1.50;;;15.20;99.90;;;;;;5072736;28;20121;-80
2022/06/11 03:17:13;;;;;;;1.83;1.35;;;15.20;99.90;;;;;;5074570;28;20075;-81
2022/06/11 03:19:40;;;;;;;3.45;1.77;;;15.20;99.90;;;;;;5067394;28;20044;-79
2022/06/11 03:22:07;;;;;;;6.28;1.52;;;15.20;99.90;;;;;;5074751;28;20052;-79
2022/06/11 03:24:35;;;;;;;3.50;1.45;;;15.20;99.90;;;;;;5072421;28;20048;-78
2022/06/11 03:27:03;;;;;;;6.32;1.55;;;15.10;99.90;;;;;;5056518;28;20071;-78
2022/06/11 03:29:29;;;;;;;3.10;1.25;;;15.10;99.90;;;;;;5075061;28;20143;-80
2022/06/11 03:31:56;;;;;;;2.22;1.38;;;15.10;99.90;;;;;;5073043;28;20059;-81
2022/06/11 03:34:23;;;;;;;1.33;1.23;;;15.10;99.90;;;;;;5073306;28;20051;-81
2022/06/11 03:36:52;;;;;;;5.10;1.60;;;15.00;99.90;;;;;;5056455;28;20049;-81
2022/06/11 03:39:20;;;;;;;5.22;1.70;;;15.00;99.90;;;;;;5057865;28;20076;-78
2022/06/11 03:41:48;;;;;;;3.33;1.70;;;15.00;99.90;;;;;;5068048;28;20109;-78
2022/06/11 03:44:15;;;;;;;1.95;1.40;;;15.00;99.90;;;;;;5074104;28;20056;-79
2022/06/11 03:46:43;;;;;;;3.38;1.40;;;15.00;99.90;;;;;;5072647;28;20113;-81
2022/06/11 03:49:10;;;;;;;2.78;1.30;;;14.90;99.90;;;;;;5073044;28;20474;-80
2022/06/11 03:51:37;;;;;;;3.03;1.50;;;15.00;99.90;;;;;;5070828;28;20067;-78
2022/06/11 03:54:04;;;;;;;4.80;1.45;;;15.00;99.90;;;;;;5070648;28;20076;-79
2022/06/11 03:56:31;;;;;;;4.28;1.55;;;15.00;99.90;;;;;;5073003;28;20107;-80
2022/06/11 03:58:58;;;;;;;4.80;1.48;;;15.00;99.90;;;;;;5069218;28;20418;-77
2022/06/11 04:01:28;;;;;;;4.60;1.40;;;15.00;99.90;;;;;;5073462;28;20116;-81
2022/06/11 04:03:57;;;;;;;;;;;15.00;99.90;;;;;;5068133;28;20494;-80
2022/06/11 04:06:28;;;;;;;7.05;1.50;;;15.00;99.90;;;;;;5073648;28;19924;-78
2022/06/11 04:08:55;;;;;;;3.13;1.45;;;15.00;99.90;;;;;;5072335;28;20135;-79
2022/06/11 04:11:22;;;;;;;3.50;1.33;;;15.00;99.90;;;;;;5072627;28;20048;-81
2022/06/11 04:13:50;;;;;;;2.33;1.23;;;15.00;99.90;;;;;;5072350;28;20132;-79
2022/06/11 04:16:22;;;;;;;5.07;1.67;;;15.00;99.90;;;;;;5075112;28;20112;-79
2022/06/11 04:18:50;;;;;;;3.63;1.40;;;15.00;99.90;;;;;;5067475;28;20053;-79
2022/06/11 04:21:19;;;;;;;3.95;1.77;;;15.00;99.90;;;;;;5074079;28;20432;-79
2022/06/11 04:23:49;;;;;;;2.70;1.40;;;15.10;99.90;;;;;;5070127;28;20123;-81
2022/06/11 04:26:23;;;;;;;2.95;1.67;;;15.10;99.90;;;;;;5070143;28;20108;-78
2022/06/11 04:28:50;;;;;;;5.72;1.90;;;15.10;99.90;;;;;;5072180;28;20108;-77
2022/06/11 04:31:16;;;;;;;3.20;1.55;;;15.20;99.90;;;;;;5064232;28;20525;-79
2022/06/11 04:33:44;;;;;;;5.07;1.60;;;15.20;99.90;;;;;;5071857;28;20051;-77
2022/06/11 04:36:12;;;;;;;4.97;1.95;;;15.30;99.90;;;;;;5069561;28;20049;-81
2022/06/11 04:38:39;;;;;;;5.28;1.73;;;15.30;99.90;;;;;;5070557;28;20044;-81
2022/06/11 04:41:07;;;;;;;3.88;1.58;;;15.40;99.90;;;;;;5070187;28;20075;-78
2022/06/11 04:43:35;;;;;;;3.90;1.70;;;15.40;99.90;;;;;;5069264;28;20044;-78
2022/06/11 04:46:02;;;;;;;3.42;1.50;;;15.50;99.90;;;;;;5071865;28;20044;-77
2022/06/11 04:48:30;;;;;;;3.97;1.52;;;15.60;99.90;;;;;;5069531;28;20044;-80
2022/06/11 04:50:58;;;;;;;4.47;1.70;;;15.60;99.90;;;;;;5067865;28;20109;-80
2022/06/11 04:53:25;;;;;;;2.25;1.60;;;15.70;99.90;;;;;;5076712;28;20048;-79
2022/06/11 04:55:52;;;;;;;6.00;1.55;;;15.80;99.90;;;;;;5074336;28;20520;-81
2022/06/11 04:58:19;;;;;;;4.55;1.85;;;15.90;99.90;;;;;;5057087;28;20080;-80
2022/06/11 05:00:46;;;;;;;5.60;1.50;;;16.00;99.90;;;;;;5076029;28;20045;-80
2022/06/11 05:03:13;;;;;;;3.50;1.42;;;16.10;99.90;;;;;;5075285;28;20417;-79
2022/06/11 05:05:40;;;;;;;2.13;1.35;;;16.30;99.90;;;;;;5076457;28;20087;-79
2022/06/11 05:08:08;;;;;;;2.80;1.42;;;16.40;99.90;;;;;;5074764;28;20053;-79
2022/06/11 05:10:34;;;;;;;2.03;1.70;;;16.50;99.90;;;;;;5073454;28;20255;-82
2022/06/11 05:13:06;;;;;;;4.15;2.20;;;16.70;99.90;;;;;;5070637;28;20134;-78
2022/06/11 05:15:34;;;;;;;2.60;1.48;;;16.80;99.90;;;;;;5076674;28;20049;-81
2022/06/11 05:18:01;;;;;;;2.63;1.60;;;16.90;99.90;;;;;;5077548;28;20076;-79
2022/06/11 05:20:28;;;;;;;5.20;1.80;;;17.00;99.90;;;;;;5076275;28;20045;-81
2022/06/11 05:22:54;;;;;;;6.25;2.28;;;17.10;99.90;;;;;;5058916;28;20144;-80
2022/06/11 05:25:22;;;;;;;6.07;2.70;;;17.20;99.90;;;;;;5077503;28;20068;-80
2022/06/11 05:27:49;;;;;;;3.97;2.13;;;17.30;99.90;;;;;;5076181;28;20053;-81
2022/06/11 05:30:23;;;;;;;5.18;2.08;;;17.40;99.90;;;;;;5076625;28;20078;-81
2022/06/11 05:32:51;;;;;;;1.75;1.40;;;17.50;99.90;;;;;;5073118;28;20049;-80
2022/06/11 05:35:21;;;;;;;6.93;1.67;;;17.50;99.90;;;;;;5077476;28;20083;-80
2022/06/11 05:37:51;;;;;;;2.13;1.50;;;17.60;99.90;;;;;;5057453;28;20438;-78
2022/06/11 05:40:21;;;;;;;3.30;1.52;;;17.60;99.90;;;;;;5074051;28;20045;-79
2022/06/11 05:42:48;;;;;;;3.15;1.50;;;17.60;99.90;;;;;;5076338;28;20076;-80
2022/06/11 05:45:19;;;;;;;2.45;1.60;;;17.60;99.90;;;;;;5068806;28;20056;-81
2022/06/11 05:47:49;;;;;;;3.45;1.33;;;17.70;99.90;;;;;;5075548;28;20048;-80
2022/06/11 05:50:19;;;;;;;5.00;1.63;;;17.70;99.90;;;;;;5073771;28;20080;-78
2022/06/11 05:52:46;;;;;;;3.58;1.45;;;17.70;99.90;;;;;;5072671;28;20053;-81
2022/06/11 05:55:17;;;;;;;5.13;1.48;;;17.70;99.90;;;;;;5075052;28;20048;-80
2022/06/11 05:57:46;;;;;;;1.55;1.42;;;17.80;99.90;;;;;;5068300;28;20388;-78
2022/06/11 06:00:16;;;;;;;7.82;2.13;;;17.80;99.90;;;;;;5074785;28;20231;-78
2022/06/11 06:02:44;;;;;;;5.30;1.60;;;17.80;99.90;;;;;;5071595;28;20055;-78
2022/06/11 06:05:15;;;;;;;2.67;1.52;;;17.80;99.90;;;;;;5072817;28;20070;-78
2022/06/11 06:07:45;;;;;;;4.68;1.58;;;17.80;99.90;;;;;;5076262;28;20127;-79
2022/06/11 06:10:12;;;;;;;2.35;1.52;;;17.80;99.90;;;;;;5070866;28;20139;-79
2022/06/11 06:12:39;;;;;;;2.67;1.60;;;17.80;99.90;;;;;;5077023;28;20029;-79
2022/06/11 06:15:13;;;;;;;5.28;1.42;;;17.80;99.90;;;;;;5073363;28;20049;-79
2022/06/11 06:17:40;;;;;;;2.88;1.48;;;17.80;99.90;;;;;;5073341;28;20044;-78
2022/06/11 06:20:11;;;;;;;4.90;1.45;;;17.80;99.90;;;;;;5073692;28;20426;-77
2022/06/11 06:22:38;;;;;;;6.97;1.77;;;17.90;99.90;;;;;;5072374;28;20060;-80
2022/06/11 06:25:06;;;;;;;2.78;1.40;;;17.90;99.90;;;;;;5075823;28;20274;-81
2022/06/11 06:27:33;;;;;;;2.22;1.45;;;17.90;99.90;;;;;;5074539;28;20072;-81
2022/06/11 06:29:59;;;;;;;6.07;2.60;;;17.90;99.90;;;;;;5074477;28;20060;-81
2022/06/11 06:32:26;;;;;;;5.22;3.00;;;18.00;99.90;;;;;;5056235;28;20133;-80
2022/06/11 06:34:53;;;;;;;4.05;1.80;;;18.10;99.90;;;;;;5058875;28;20104;-80
2022/06/11 06:37:19;;;;;;;4.05;1.73;;;18.10;99.90;;;;;;5075122;28;20041;-81
2022/06/11 06:39:46;;;;;;;2.22;1.42;;;18.10;99.90;;;;;;5073806;28;20040;-79
2022/06/11 06:42:13;;;;;;;3.25;1.42;;;18.10;99.90;;;;;;5075323;28;20087;-82
2022/06/11 06:44:40;;;;;;;1.98;1.30;;;18.20;99.90;;;;;;5074083;28;20053;-80
2022/06/11 06:47:06;;;;;;;2.72;1.50;;;18.20;99.90;;;;;;5076332;28;20051;-80
2022/06/11 06:49:33;;;;;;;4.40;1.70;;;18.30;99.90;;;;;;5073183;28;20079;-82
2022/06/11 06:52:00;;;;;;;5.57;1.85;;;18.30;99.90;;;;;;5069066;28;20109;-80
2022/06/11 06:54:27;;;;;;;4.50;1.63;;;18.30;99.90;;;;;;5057775;28;20045;-81
2022/06/11 06:56:53;;;;;;;3.28;1.67;;;18.40;99.90;;;;;;5074280;28;20045;-79
2022/06/11 06:59:20;;;;;;;5.43;1.48;;;18.50;99.90;;;;;;5075848;28;20053;-82
2022/06/11 07:01:47;;;;;;;10.95;2.00;;;18.50;99.90;;;;;;5075453;28;20108;-82
2022/06/11 07:04:14;;;;;;;3.17;1.50;;;18.50;99.90;;;;;;5071233;28;20041;-80
2022/06/11 07:06:50;;;;;;;7.35;1.77;;;18.60;99.90;;;;;;5069376;28;20049;-79
2022/06/11 07:09:17;;;;;;;3.40;1.60;;;18.60;99.90;;;;;;5072885;28;20441;-78
2022/06/11 07:11:44;;;;;;;6.10;1.88;;;18.70;99.90;;;;;;5069335;28;20056;-79
2022/06/11 07:14:11;;;;;;;4.80;1.92;;;18.70;99.90;;;;;;5054025;28;20509;-81
2022/06/11 07:16:48;;;;;;;3.47;1.75;;;18.70;99.90;;;;;;5067584;28;20502;-79
2022/06/11 07:19:21;;;;;;;3.00;1.30;;;18.80;99.90;;;;;;5066739;28;20065;-78
2022/06/11 07:21:51;;;;;;;4.75;2.00;;;18.80;99.90;;;;;;5062571;28;20072;-78
2022/06/11 07:24:22;;;;;;;3.78;1.42;;;18.80;99.90;;;;;;5069310;28;20159;-79
2022/06/11 07:27:02;;;;;;;4.25;1.90;;;18.90;99.90;;;;;;5068707;28;20118;-80
2022/06/11 07:29:32;;;;;;;4.63;1.83;;;19.00;99.90;;;;;;5061780;28;20560;-79
2022/06/11 07:32:04;;;;;;;3.25;1.38;;;19.00;99.90;;;;;;5069302;28;20053;-78
2022/06/11 07:34:30;;;;;;;6.32;1.58;;;19.10;99.90;;;;;;5070809;28;20045;-79
2022/06/11 07:36:58;;;;;;;5.82;1.80;;;19.10;99.90;;;;;;5071270;28;20045;-80
2022/06/11 07:39:25;;;;;;;5.63;1.67;;;19.20;99.90;;;;;;5072052;28;20044;-80
2022/06/11 07:41:52;;;;;;;5.97;1.60;;;19.20;99.90;;;;;;5069237;28;20045;-79
2022/06/11 07:44:19;;;;;;;9.23;1.95;;;19.20;99.90;;;;;;5072701;28;20107;-79
2022/06/11 07:46:46;;;;;;;8.02;1.70;;;19.30;99.90;;;;;;5068507;28;20045;-79
2022/06/11 07:49:13;;;;;;;6.95;1.70;;;19.30;99.90;;;;;;5072502;28;20052;-81
2022/06/11 07:51:40;;;;;;;6.85;1.60;;;19.30;99.90;;;;;;5070921;28;20064;-80
2022/06/11 07:54:06;;;;;;;6.57;2.03;;;19.40;99.90;;;;;;5071722;28;20054;-79
2022/06/11 07:56:33;;;;;;;3.70;1.75;;;19.40;99.90;;;;;;5070917;28;20080;-80
2022/06/11 07:59:00;;;;;;;3.92;1.90;;;19.50;99.90;;;;;;5071425;28;20045;-80
2022/06/11 08:01:26;;;;;;;4.22;2.20;;;19.50;99.90;;;;;;5071949;28;20083;-78
2022/06/11 08:03:53;;;;;;;8.05;1.92;;;19.60;99.90;;;;;;5070633;28;20052;-81
2022/06/11 08:06:20;;;;;;;4.00;1.60;;;19.60;99.90;;;;;;5072575;28;20130;-80
2022/06/11 08:08:49;;;;;;;11.43;2.10;;;19.70;99.90;;;;;;5071403;28;20165;-80
2022/06/11 08:11:16;;;;;;;3.05;1.48;;;19.70;99.90;;;;;;5074774;28;20124;-78
2022/06/11 08:13:43;;;;;;;4.88;1.80;;;19.70;99.90;;;;;;5074693;28;20045;-80
2022/06/11 08:16:10;;;;;;;29.92;3.08;;;19.80;99.90;;;;;;5071683;28;20045;-79
2022/06/11 08:18:38;;;;;;;5.13;1.60;;;19.80;99.90;;;;;;5073103;28;20044;-79
2022/06/11 08:21:05;;;;;;;2.35;1.40;;;19.90;99.90;;;;;;5073317;28;20049;-82
2022/06/11 08:23:32;;;;;;;5.20;1.67;;;19.90;99.90;;;;;;5072853;28;20080;-80
2022/06/11 08:25:58;;;;;;;3.72;1.83;;;20.00;99.90;;;;;;5074147;28;20083;-79
2022/06/11 08:28:26;;;;;;;8.15;2.28;;;20.00;99.90;;;;;;5070106;28;20076;-80
2022/06/11 08:30:52;;;;;;;3.75;1.42;;;20.10;99.90;;;;;;5070987;28;20047;-77
2022/06/11 08:33:20;;;;;;;4.97;1.42;;;20.10;99.90;;;;;;5080581;28;20077;-79
2022/06/11 08:35:46;;;;;;;3.58;1.30;;;20.20;99.90;;;;;;5046602;28;20045;-79
2022/06/11 08:38:13;;;;;;;4.35;1.45;;;20.20;99.90;;;;;;5078515;28;20052;-78
2022/06/11 08:40:55;;;;;;;3.92;1.42;;;20.20;99.90;;;;;;5076348;28;20044;-78
2022/06/11 08:43:36;;;;;;;2.85;1.30;;;20.30;99.90;;;;;;5068267;28;20133;-79
2022/06/11 08:46:18;;;;;;;3.92;1.20;;;20.30;99.90;;;;;;5067248;28;20045;-79
2022/06/11 08:49:03;;;;;;;2.45;1.40;;;20.30;99.90;;;;;;5064947;28;20049;-80
2022/06/11 08:51:40;;;;;;;2.65;1.30;;;20.50;99.90;;;;;;5055931;28;20045;-78
2022/06/11 08:54:10;;;;;;;8.27;2.42;;;20.50;99.90;;;;;;5033514;28;20056;-78
2022/06/11 08:56:49;;;;;;;6.32;1.40;;;20.60;99.90;;;;;;5068064;28;20045;-78
2022/06/11 08:59:33;;;;;;;3.20;1.30;;;20.60;99.90;;;;;;5065638;28;20045;-77
2022/06/11 09:02:19;;;;;;;7.32;1.40;;;20.80;99.90;;;;;;5050067;28;20051;-79
2022/06/11 09:05:11;;;;;;;4.38;1.15;;;20.80;99.90;;;;;;5067255;28;20480;-79
2022/06/11 09:07:43;;;;;;;4.25;0.95;;;20.90;99.90;;;;;;5068198;28;20113;-79
2022/06/11 09:10:25;;;;;;;10.55;1.83;;;20.90;99.90;;;;;;5067607;28;20451;-78
2022/06/11 09:12:59;;;;;;;1.85;1.23;;;21.00;99.90;;;;;;5063271;28;20080;-79
2022/06/11 09:15:47;;;;;;;3.58;1.20;;;21.00;99.90;;;;;;5066928;28;20178;-79
2022/06/11 09:18:27;;;;;;;5.82;1.38;;;21.00;99.90;;;;;;5065106;28;20045;-78
2022/06/11 09:21:35;;;;;;;4.13;1.20;;;21.10;99.90;;;;;;5066210;28;20407;-79
2022/06/11 09:24:44;;;;;;;1488.70;218.35;;;21.10;99.90;;;;;;5040399;28;20051;-79
2022/06/11 09:27:10;;;;;;;5.85;1.70;;;21.20;99.90;;;;;;5071056;28;20059;-79
2022/06/11 09:30:14;;;;;;;47.78;5.18;;;21.20;99.90;;;;;;5067655;28;20053;-77
2022/06/11 09:33:03;;;;;;;2.22;1.30;;;21.30;99.90;;;;;;5066812;28;20075;-78
2022/06/11 09:35:41;;;;;;;40.40;4.32;;;21.40;99.90;;;;;;5065370;28;20395;-81
2022/06/11 09:38:22;;;;;;;6.22;1.88;;;21.50;99.90;;;;;;5075497;28;20051;-79
2022/06/11 09:41:03;;;;;;;8.68;1.40;;;21.50;99.90;;;;;;5071470;28;20049;-80
2022/06/11 09:43:57;;;;;;;8.18;1.40;;;21.50;99.90;;;;;;5076776;28;20048;-79
2022/06/11 09:46:44;;;;;;;4.10;1.38;;;21.60;99.90;;;;;;5068306;28;20112;-79
2022/06/11 09:49:35;;;;;;;5.97;1.50;;;21.70;99.90;;;;;;5075661;28;20075;-78
2022/06/11 09:52:30;;;;;;;5.82;1.17;;;21.70;99.90;;;;;;5064250;28;20049;-77
2022/06/11 09:55:21;;;;;;;3.53;1.00;;;21.70;99.90;;;;;;5082455;28;20072;-79
2022/06/11 09:58:26;;;;;;;14.07;1.73;;;21.80;99.90;;;;;;5080317;28;20082;-78
2022/06/11 10:01:00;;;;;;;11.77;1.42;;;21.90;99.90;;;;;;5030366;28;20064;-77
2022/06/11 10:03:36;;;;;;;2.15;1.20;;;21.90;99.90;;;;;;5058261;28;20481;-79
2022/06/11 10:06:11;;;;;;;4.35;0.88;;;21.90;99.90;;;;;;5076317;28;20056;-79
2022/06/11 10:08:45;;;;;;;3.60;1.20;;;21.90;99.90;;;;;;5070585;28;20055;-78
2022/06/11 10:11:24;;;;;;;3.28;1.17;;;22.00;99.90;;;;;;5073814;28;20088;-80
2022/06/11 10:14:31;;;;;;;2.25;1.10;;;22.10;99.90;;;;;;5068825;28;20499;-80
2022/06/11 10:17:29;;;;;;;2.33;1.25;;;22.00;99.90;;;;;;5072880;28;20391;-78
2022/06/11 10:20:10;;;;;;;4.43;1.20;;;22.20;99.90;;;;;;5047980;28;20048;-79
2022/06/11 10:22:44;;;;;;;5.43;1.52;;;22.30;99.90;;;;;;5070124;28;20068;-78
2022/06/11 10:25:18;;;;;;;6.35;1.23;;;22.30;99.90;;;;;;5070767;28;20045;-79
2022/06/11 10:27:56;;;;;;;4.35;1.45;;;22.40;99.90;;;;;;5067945;28;20067;-78
2022/06/11 10:30:45;;;;;;;8.10;1.20;;;22.50;99.90;;;;;;5071614;28;20044;-79
2022/06/11 10:33:29;;;;;;;3.78;1.30;;;22.50;99.90;;;;;;5070813;28;20079;-79
2022/06/11 10:36:20;;;;;;;5.00;1.27;;;22.50;99.90;;;;;;5067471;28;20045;-80
2022/06/11 10:38:55;;;;;;;2.45;1.10;;;22.60;99.90;;;;;;5067286;28;20083;-80
2022/06/11 10:41:39;;;;;;;4.65;1.25;;;22.80;99.90;;;;;;5073193;28;20079;-78
2022/06/11 10:44:35;;;;;;;3.75;1.08;;;22.70;99.90;;;;;;5066491;28;20072;-78
2022/06/11 10:47:15;;;;;;;5.40;1.35;;;22.80;99.90;;;;;;5067314;28;20052;-79
2022/06/11 10:49:50;;;;;;;40.30;4.15;;;22.80;99.90;;;;;;5069720;28;20049;-78
2022/06/11 10:52:46;;;;;;;2.45;1.30;;;22.80;99.90;;;;;;5066950;28;20112;-79
2022/06/11 10:55:17;;;;;;;4.53;1.10;;;22.90;99.90;;;;;;5068143;28;20053;-78
2022/06/11 10:57:48;;;;;;;2.17;1.13;;;23.10;99.90;;;;;;5074323;28;20541;-78
2022/06/11 11:00:30;;;;;;;4.70;1.15;;;23.10;99.90;;;;;;5066527;28;20076;-78
2022/06/11 11:03:01;;;;;;;6.75;1.30;;;23.10;99.90;;;;;;5068774;28;20117;-80
2022/06/11 11:05:50;;;;;;;2.53;1.27;;;23.10;99.90;;;;;;5070948;28;20051;-79
2022/06/11 11:08:16;;;;;;;1.67;1.10;;;23.10;99.90;;;;;;5069227;28;20053;-77
2022/06/11 11:10:47;;;;;;;3.78;1.00;;;23.10;99.90;;;;;;5069005;28;20068;-79
2022/06/11 11:13:23;;;;;;;4.15;1.10;;;23.10;99.90;;;;;;5069552;28;20045;-78
2022/06/11 11:16:21;;;;;;;5.70;1.20;;;23.10;99.90;;;;;;5069397;28;20486;-77
2022/06/11 11:19:01;;;;;;;3.05;1.17;;;23.30;99.90;;;;;;5070115;28;20135;-78
2022/06/11 11:21:49;;;;;;;2.90;1.30;;;23.40;99.90;;;;;;5069085;28;20423;-77
2022/06/11 11:24:20;;;;;;;5.18;1.52;;;23.30;99.90;;;;;;5072158;28;20127;-79
2022/06/11 11:26:55;;;;;;;2.45;1.20;;;23.30;99.90;;;;;;5070369;28;20120;-80
2022/06/11 11:29:27;;;;;;;3.95;1.05;;;23.30;99.90;;;;;;5072168;28;20112;-79
2022/06/11 11:31:58;;;;;;;2.45;1.10;;;23.40;99.90;;;;;;5071653;28;20072;-80
2022/06/11 11:34:31;;;;;;;1.98;1.10;;;23.40;99.90;;;;;;5074207;28;20101;-80
2022/06/11 11:37:04;;;;;;;2.05;0.98;;;23.50;99.90;;;;;;5069825;28;20045;-80
2022/06/11 11:39:33;;;;;;;2.58;1.25;;;23.60;99.90;;;;;;5072614;28;20387;-79
2022/06/11 11:42:06;;;;;;;8.00;1.42;;;23.50;99.90;;;;;;5074147;28;20051;-77
2022/06/11 11:44:51;;;;;;;2.33;1.40;;;23.60;99.90;;;;;;5050599;28;20055;-78
2022/06/11 11:47:35;;;;;;;2.20;1.30;;;23.60;99.90;;;;;;5070252;28;20049;-79
2022/06/11 11:50:11;;;;;;;4.95;1.20;;;23.70;99.90;;;;;;5066240;28;20425;-78
2022/06/11 11:52:50;;;;;;;5.13;1.40;;;23.70;99.90;;;;;;5072299;28;20079;-79
2022/06/11 11:55:26;;;;;;;2.72;1.50;;;23.70;99.90;;;;;;5068681;28;20049;-80
2022/06/11 11:58:11;;;;;;;4.40;1.30;;;23.70;99.90;;;;;;5070879;28;20051;-80
2022/06/11 12:01:13;;;;;;;3.22;1.30;;;23.70;99.90;;;;;;5070380;28;20045;-79
2022/06/11 12:04:01;;;;;;;5.07;0.85;;;23.70;99.90;;;;;;5068743;28;20056;-79
2022/06/11 12:06:42;;;;;;;2.70;1.10;;;23.80;99.90;;;;;;5076388;28;20077;-77
2022/06/11 12:09:30;;;;;;;4.22;1.50;;;23.80;99.90;;;;;;5069215;28;20128;-79
2022/06/11 12:12:18;;;;;;;1.88;1.02;;;23.80;99.90;;;;;;5064216;28;20053;-80
2022/06/11 12:14:56;;;;;;;2.83;0.95;;;23.80;99.90;;;;;;5073144;28;20044;-78
2022/06/11 12:17:45;;;;;;;3.33;1.27;;;23.80;99.90;;;;;;5066943;28;20048;-80
2022/06/11 12:20:35;;;;;;;54.33;14.35;;;23.80;99.90;;;;;;5047800;28;20045;-78
2022/06/11 12:23:12;;;;;;;4.07;1.40;;;23.90;99.90;;;;;;5046973;28;20051;-78
2022/06/11 12:25:55;;;;;;;15.82;4.88;;;23.90;99.90;;;;;;5070170;28;20048;-77
2022/06/11 12:28:36;;;;;;;18.52;6.28;;;24.00;99.90;;;;;;5064864;28;20124;-79
2022/06/11 12:31:13;;;;;;;70.55;20.90;;;24.00;99.90;;;;;;5064294;28;20045;-81
2022/06/11 12:33:43;;;;;;;2.28;1.25;;;24.00;99.90;;;;;;5074772;28;20528;-80
2022/06/11 12:36:22;;;;;;;31.85;7.85;;;24.10;99.90;;;;;;5071269;28;20068;-80
2022/06/11 12:39:09;;;;;;;1.70;0.90;;;24.10;99.90;;;;;;5069101;28;20049;-80
2022/06/11 12:42:00;;;;;;;6.20;1.48;;;24.20;99.90;;;;;;5072588;28;20486;-80
2022/06/11 12:44:48;;;;;;;3.08;1.17;;;24.20;99.90;;;;;;5073227;28;20127;-78
2022/06/11 12:47:53;;;;;;;39.85;11.35;;;24.20;99.90;;;;;;5070339;28;20056;-80
2022/06/11 12:50:48;;;;;;;32.97;9.13;;;24.20;99.90;;;;;;5071404;28;20415;-78
2022/06/11 12:53:23;;;;;;;11.93;3.20;;;24.20;99.90;;;;;;5069903;28;20049;-78
2022/06/11 12:56:03;;;;;;;3.85;1.90;;;24.30;99.90;;;;;;5072827;28;20140;-79
2022/06/11 12:58:54;;;;;;;29.90;7.43;;;24.40;99.90;;;;;;5073500;28;20044;-79
2022/06/11 13:01:20;;;;;;;4.05;1.48;;;24.40;99.90;;;;;;5070834;28;20083;-79
2022/06/11 13:04:25;;;;;;;2.85;1.15;;;24.40;99.90;;;;;;5069532;28;20118;-78
2022/06/11 13:07:00;;;;;;;3.67;0.98;;;24.50;99.90;;;;;;5069676;28;20049;-78
2022/06/11 13:09:36;;;;;;;1.63;0.90;;;24.50;99.90;;;;;;5070036;28;20048;-79
2022/06/11 13:12:19;;;;;;;6.78;1.17;;;24.50;99.90;;;;;;5069580;28;20072;-80
2022/06/11 13:15:23;;;;;;;2.45;0.90;;;24.60;99.90;;;;;;5057127;28;20132;-80
2022/06/11 13:18:25;;;;;;;1.70;0.90;;;24.50;99.90;;;;;;5070004;28;20045;-80
2022/06/11 13:21:03;;;;;;;1.95;1.20;;;24.60;99.90;;;;;;5022432;28;20045;-79
2022/06/11 13:23:36;;;;;;;4.43;1.23;;;24.60;99.90;;;;;;5073021;28;20128;-79